createdAt,value
2022-12-14T00:01:22.570Z,66.13
2022-12-14T00:03:49.750Z,65.23
2022-12-14T00:06:28.110Z,66.23
2022-12-14T00:08:57.112Z,65.53
2022-12-14T00:11:23.748Z,66.13
2022-12-14T00:14:01.510Z,64.65
2022-12-14T00:16:30.172Z,64.45
2022-12-14T00:18:59.096Z,64.86
2022-12-14T00:21:26.599Z,64.21
2022-12-14T00:23:54.286Z,63.61
2022-12-14T00:26:26.058Z,63.40
2022-12-14T00:28:54.191Z,64.08
2022-12-14T00:31:21.842Z,64.09
2022-12-14T00:33:50.300Z,64.88
2022-12-14T00:36:17.142Z,63.81
2022-12-14T00:38:44.126Z,63.37
2022-12-14T00:41:10.973Z,64.71
2022-12-14T00:43:37.551Z,64.62
2022-12-14T00:46:04.118Z,65.07
2022-12-14T00:48:31.284Z,64.07
2022-12-14T00:50:58.233Z,63.82
2022-12-14T00:53:25.379Z,63.82
2022-12-14T00:55:52.342Z,63.75
2022-12-14T00:58:21.374Z,63.15
2022-12-14T01:00:57.815Z,64.05
2022-12-14T01:03:24.626Z,63.03
2022-12-14T01:05:51.297Z,63.33
2022-12-14T01:08:17.684Z,63.83
2022-12-14T01:10:44.138Z,64.69
2022-12-14T01:13:11.549Z,64.96
2022-12-14T01:15:38.372Z,64.95
2022-12-14T01:18:04.912Z,64.40
2022-12-14T01:20:31.311Z,64.91
2022-12-14T01:22:58.288Z,64.16
2022-12-14T01:25:25.173Z,64.75
2022-12-14T01:27:51.701Z,64.65
2022-12-14T01:30:19.340Z,64.83
2022-12-14T01:32:46.510Z,64.35
2022-12-14T01:35:12.977Z,65.11
2022-12-14T01:37:39.456Z,64.22
2022-12-14T01:40:06.250Z,64.20
2022-12-14T01:42:35.206Z,63.82
2022-12-14T01:45:01.755Z,64.16
2022-12-14T01:47:42.048Z,65.10
2022-12-14T01:50:11.521Z,64.71
2022-12-14T01:52:49.449Z,63.89
2022-12-14T01:55:23.844Z,62.93
2022-12-14T01:58:00.106Z,64.03
2022-12-14T02:00:26.579Z,63.04
2022-12-14T02:03:19.613Z,62.94
2022-12-14T02:05:50.588Z,62.63
2022-12-14T02:08:19.293Z,63.33
2022-12-14T02:10:47.012Z,63.06
2022-12-14T02:13:22.134Z,62.28
2022-12-14T02:15:48.724Z,62.41
2022-12-14T02:18:21.700Z,62.15
2022-12-14T02:21:06.210Z,62.06
2022-12-14T02:24:08.029Z,61.87
2022-12-14T02:27:01.858Z,61.60
2022-12-14T02:29:52.538Z,61.91
2022-12-14T02:32:28.075Z,61.83
2022-12-14T02:35:18.605Z,62.30
2022-12-14T02:38:01.569Z,61.83
2022-12-14T02:40:34.402Z,61.69
2022-12-14T02:43:18.699Z,61.92
2022-12-14T02:45:48.035Z,62.09
2022-12-14T02:48:24.145Z,61.91
2022-12-14T02:50:59.214Z,61.28
2022-12-14T02:53:47.447Z,61.70
2022-12-14T02:56:19.184Z,62.09
2022-12-14T02:58:50.389Z,61.54
2022-12-14T03:01:21.954Z,61.83
2022-12-14T03:03:48.683Z,61.29
2022-12-14T03:06:26.869Z,61.89
2022-12-14T03:09:00.269Z,61.66
2022-12-14T03:11:58.992Z,61.42
2022-12-14T03:14:28.879Z,61.99
2022-12-14T03:17:01.630Z,61.62
2022-12-14T03:19:41.382Z,61.70
2022-12-14T03:22:13.260Z,61.46
2022-12-14T03:24:44.655Z,61.54
2022-12-14T03:27:17.003Z,61.23
2022-12-14T03:29:58.211Z,60.82
2022-12-14T03:32:28.489Z,61.30
2022-12-14T03:35:01.337Z,62.10
2022-12-14T03:38:06.530Z,61.48
2022-12-14T03:40:39.840Z,61.44
2022-12-14T03:43:25.230Z,61.03
2022-12-14T03:46:04.248Z,61.48
2022-12-14T03:48:46.211Z,61.12
2022-12-14T03:51:31.119Z,62.18
2022-12-14T03:54:08.674Z,61.76
2022-12-14T03:56:49.700Z,61.88
2022-12-14T03:59:46.265Z,62.01
2022-12-14T04:02:40.696Z,60.85
2022-12-14T04:05:18.259Z,61.62
2022-12-14T04:08:08.933Z,61.72
2022-12-14T04:11:05.661Z,61.46
2022-12-14T04:14:02.166Z,61.78
2022-12-14T04:16:55.016Z,61.02
2022-12-14T04:19:34.199Z,61.39
2022-12-14T04:22:12.944Z,62.67
2022-12-14T04:25:01.985Z,61.79
2022-12-14T04:27:39.664Z,61.35
2022-12-14T04:30:08.630Z,60.99
2022-12-14T04:32:52.033Z,61.03
2022-12-14T04:35:25.505Z,61.31
2022-12-14T04:38:09.183Z,61.57
2022-12-14T04:40:43.594Z,61.51
2022-12-14T04:43:15.633Z,61.08
2022-12-14T04:45:49.434Z,60.36
2022-12-14T04:48:27.582Z,60.56
2022-12-14T04:51:09.756Z,61.09
2022-12-14T04:53:41.037Z,61.81
2022-12-14T04:56:20.143Z,61.59
2022-12-14T04:58:46.915Z,61.02
2022-12-14T05:01:35.488Z,60.60
2022-12-14T05:04:26.670Z,60.85
2022-12-14T05:07:11.820Z,60.34
2022-12-14T05:09:43.199Z,60.74
2022-12-14T05:12:20.027Z,60.55
2022-12-14T05:14:52.846Z,60.81
2022-12-14T05:17:19.453Z,60.42
2022-12-14T05:19:48.891Z,61.12
2022-12-14T05:22:16.271Z,61.99
2022-12-14T05:24:43.014Z,61.26
2022-12-14T05:27:09.632Z,62.16
2022-12-14T05:29:36.115Z,60.61
2022-12-14T05:32:03.367Z,60.73
2022-12-14T05:34:30.801Z,61.59
2022-12-14T05:36:58.130Z,60.78
2022-12-14T05:39:24.597Z,61.26
2022-12-14T05:41:51.059Z,61.39
2022-12-14T05:44:17.451Z,61.20
2022-12-14T05:46:43.888Z,60.73
2022-12-14T05:49:10.653Z,60.69
2022-12-14T05:51:37.354Z,60.76
2022-12-14T05:54:03.896Z,60.67
2022-12-14T05:56:30.299Z,60.48
2022-12-14T05:58:57.067Z,60.89
2022-12-14T06:01:23.779Z,60.36
2022-12-14T06:03:53.406Z,60.30
2022-12-14T06:06:19.894Z,60.43
2022-12-14T06:08:46.735Z,60.46
2022-12-14T06:11:15.913Z,60.57
2022-12-14T06:13:43.015Z,61.03
2022-12-14T06:16:14.702Z,60.69
2022-12-14T06:18:54.230Z,59.72
2022-12-14T06:21:23.634Z,59.11
2022-12-14T06:23:50.048Z,59.67
2022-12-14T06:26:17.025Z,59.47
2022-12-14T06:28:43.936Z,58.90
2022-12-14T06:31:20.044Z,59.03
2022-12-14T06:33:46.785Z,58.71
2022-12-14T06:36:23.836Z,58.35
2022-12-14T06:38:54.487Z,58.62
2022-12-14T06:41:22.011Z,58.61
2022-12-14T06:43:49.373Z,58.07
2022-12-14T06:46:19.744Z,58.07
2022-12-14T06:49:05.918Z,57.48
2022-12-14T06:51:32.825Z,57.13
2022-12-14T06:53:59.406Z,56.90
2022-12-14T06:56:27.684Z,56.28
2022-12-14T06:58:55.402Z,56.09
2022-12-14T07:01:24.650Z,56.20
2022-12-14T07:03:53.549Z,56.04
2022-12-14T07:06:21.364Z,55.03
2022-12-14T07:08:48.709Z,55.21
2022-12-14T07:11:17.406Z,55.43
2022-12-14T07:13:44.381Z,54.88
2022-12-14T07:16:23.760Z,54.68
2022-12-14T07:18:50.928Z,54.43
2022-12-14T07:21:19.454Z,54.91
2022-12-14T07:23:47.249Z,54.14
2022-12-14T07:26:17.033Z,53.86
2022-12-14T07:28:44.418Z,54.04
2022-12-14T07:31:14.334Z,54.14
2022-12-14T07:33:41.075Z,54.17
2022-12-14T07:36:09.579Z,53.77
2022-12-14T07:38:37.428Z,53.76
2022-12-14T07:41:08.220Z,53.93
2022-12-14T07:43:35.111Z,54.02
2022-12-14T07:46:07.685Z,53.92
2022-12-14T07:48:34.707Z,54.16
2022-12-14T07:51:06.288Z,54.37
2022-12-14T07:53:33.758Z,54.39
2022-12-14T07:56:05.520Z,53.87
2022-12-14T07:58:33.246Z,53.81
2022-12-14T08:01:13.521Z,53.73
2022-12-14T08:03:42.070Z,53.28
2022-12-14T08:06:10.397Z,53.35
2022-12-14T08:08:36.905Z,53.59
2022-12-14T08:11:04.791Z,52.75
2022-12-14T08:13:32.170Z,54.46
2022-12-14T08:16:07.282Z,52.32
2022-12-14T08:18:34.253Z,52.57
2022-12-14T08:21:01.784Z,52.58
2022-12-14T08:23:28.835Z,51.70
2022-12-14T08:25:56.889Z,52.26
2022-12-14T08:28:24.192Z,52.39
2022-12-14T08:30:51.516Z,53.14
2022-12-14T08:33:19.597Z,52.65
2022-12-14T08:35:46.425Z,52.76
2022-12-14T08:38:14.199Z,52.96
2022-12-14T08:40:40.809Z,52.18
2022-12-14T08:43:07.838Z,52.59
2022-12-14T08:45:34.925Z,52.75
2022-12-14T08:48:01.779Z,52.85
2022-12-14T08:50:29.298Z,53.08
2022-12-14T08:52:56.359Z,51.64
2022-12-14T08:55:28.259Z,50.68
2022-12-14T08:57:56.828Z,51.21
2022-12-14T09:00:23.378Z,52.35
2022-12-14T09:02:51.288Z,52.77
2022-12-14T09:05:18.013Z,51.82
2022-12-14T09:07:44.429Z,51.87
2022-12-14T09:10:11.370Z,53.48
2022-12-14T09:12:37.998Z,52.59
2022-12-14T09:15:04.805Z,53.30
2022-12-14T09:17:31.492Z,52.68
2022-12-14T09:19:58.217Z,53.51
2022-12-14T09:22:24.795Z,53.00
2022-12-14T09:24:51.926Z,54.36
2022-12-14T09:27:18.475Z,55.83
2022-12-14T09:29:44.895Z,55.68
2022-12-14T09:32:11.276Z,55.94
2022-12-14T09:34:37.738Z,55.29
2022-12-14T09:37:07.377Z,55.56
2022-12-14T09:39:34.446Z,55.31
2022-12-14T09:42:04.003Z,56.70
2022-12-14T09:44:53.611Z,56.92
2022-12-14T09:47:28.634Z,57.01
2022-12-14T09:50:07.159Z,56.43
2022-12-14T09:52:59.862Z,57.44
2022-12-14T09:55:32.391Z,58.03
2022-12-14T09:58:05.395Z,57.40
2022-12-14T10:00:35.902Z,56.44
2022-12-14T10:03:31.537Z,56.89
2022-12-14T10:06:16.701Z,58.03
2022-12-14T10:08:56.131Z,58.35
2022-12-14T10:11:55.360Z,58.14
2022-12-14T10:14:30.557Z,58.58
2022-12-14T10:17:13.873Z,58.83
2022-12-14T10:19:52.729Z,58.59
2022-12-14T10:22:23.041Z,57.95
2022-12-14T10:24:54.735Z,59.06
2022-12-14T10:27:24.320Z,59.71
2022-12-14T10:30:01.316Z,59.86
2022-12-14T10:32:41.361Z,59.67
2022-12-14T10:35:38.857Z,60.32
2022-12-14T10:38:17.563Z,58.96
2022-12-14T10:40:53.585Z,57.72
2022-12-14T10:43:44.412Z,57.29
2022-12-14T10:46:35.893Z,58.59
2022-12-14T10:49:11.194Z,58.25
2022-12-14T10:51:42.421Z,56.99
2022-12-14T10:54:20.627Z,57.35
2022-12-14T10:56:49.902Z,57.08
2022-12-14T10:59:23.865Z,56.54
2022-12-14T11:02:05.859Z,56.03
2022-12-14T11:04:51.113Z,56.28
2022-12-14T11:07:20.507Z,55.17
2022-12-14T11:09:47.280Z,56.49
2022-12-14T11:12:13.751Z,56.45
2022-12-14T11:15:06.810Z,55.99
2022-12-14T11:17:42.812Z,55.21
2022-12-14T11:20:09.412Z,54.43
2022-12-14T11:22:44.662Z,54.76
2022-12-14T11:25:29.804Z,54.04
2022-12-14T11:27:59.442Z,54.74
2022-12-14T11:30:27.328Z,54.65
2022-12-14T11:32:53.916Z,55.68
2022-12-14T11:35:21.213Z,56.92
2022-12-14T11:37:57.640Z,55.54
2022-12-14T11:40:26.115Z,54.19
2022-12-14T11:43:01.417Z,55.32
2022-12-14T11:45:30.675Z,55.43
2022-12-14T11:48:10.903Z,53.58
2022-12-14T11:50:37.441Z,53.79
2022-12-14T11:53:11.278Z,53.00
2022-12-14T11:55:40.559Z,52.57
2022-12-14T11:58:20.157Z,53.36
2022-12-14T12:00:58.542Z,52.87
2022-12-14T12:03:31.157Z,51.93
2022-12-14T12:06:05.624Z,52.46
2022-12-14T12:08:38.177Z,53.31
2022-12-14T12:11:20.269Z,53.64
2022-12-14T12:13:51.081Z,53.50
2022-12-14T12:16:21.475Z,53.90
2022-12-14T12:18:52.729Z,54.92
2022-12-14T12:21:25.015Z,53.55
2022-12-14T12:24:04.627Z,53.99
2022-12-14T12:26:36.566Z,54.87
2022-12-14T12:29:11.713Z,54.97
2022-12-14T12:31:55.025Z,54.43
2022-12-14T12:34:31.393Z,54.14
2022-12-14T12:39:56.953Z,54.76
2022-12-14T12:42:43.120Z,53.85
2022-12-14T12:45:21.905Z,54.55
2022-12-14T12:47:54.799Z,54.72
2022-12-14T12:50:33.663Z,55.90
2022-12-14T12:53:30.279Z,54.82
2022-12-14T12:56:19.557Z,55.54
2022-12-14T12:58:52.662Z,55.40
2022-12-14T13:01:30.970Z,55.45
2022-12-14T13:04:02.888Z,55.47
2022-12-14T13:06:40.920Z,56.01
2022-12-14T13:09:27.889Z,56.26
2022-12-14T13:11:55.448Z,54.99
2022-12-14T13:14:30.733Z,54.28
2022-12-14T13:16:59.636Z,55.76
2022-12-14T13:19:54.691Z,55.25
2022-12-14T13:22:33.529Z,55.12
2022-12-14T13:25:07.334Z,55.16
2022-12-14T13:27:36.493Z,55.03
2022-12-14T13:30:06.048Z,55.17
2022-12-14T13:32:50.858Z,55.04
2022-12-14T13:35:35.749Z,55.60
2022-12-14T13:38:29.172Z,56.09
2022-12-14T13:41:23.246Z,56.83
2022-12-14T13:43:49.625Z,57.17
2022-12-14T13:46:27.316Z,55.54
2022-12-14T13:48:57.309Z,56.43
2022-12-14T13:51:31.790Z,56.31
2022-12-14T13:54:00.506Z,55.56
2022-12-14T13:56:33.322Z,55.31
2022-12-14T13:59:04.668Z,54.53
2022-12-14T14:01:46.208Z,55.66
2022-12-14T14:04:15.439Z,54.32
2022-12-14T14:06:44.026Z,54.02
2022-12-14T14:09:28.797Z,53.61
2022-12-14T14:12:34.952Z,54.19
2022-12-14T14:15:25.824Z,54.32
2022-12-14T14:17:54.802Z,53.53
2022-12-14T14:20:36.274Z,54.99
2022-12-14T14:23:15.319Z,55.73
2022-12-14T14:26:26.943Z,54.39
2022-12-14T14:29:15.593Z,54.88
2022-12-14T14:31:58.130Z,55.55
2022-12-14T14:34:27.580Z,55.31
2022-12-14T14:36:54.342Z,55.05
2022-12-14T14:42:23.113Z,56.23
2022-12-14T14:44:59.247Z,56.07
2022-12-14T14:47:35.714Z,56.68
2022-12-14T14:50:08.277Z,56.76
2022-12-14T14:52:37.796Z,56.36
2022-12-14T14:58:34.917Z,57.62
2022-12-14T15:01:21.550Z,57.37
2022-12-14T15:04:03.647Z,58.10
2022-12-14T15:06:33.409Z,59.84
2022-12-14T15:09:24.119Z,61.43
2022-12-14T15:12:00.976Z,61.54
2022-12-14T15:14:46.644Z,60.64
2022-12-14T15:17:21.925Z,59.57
2022-12-14T15:19:55.386Z,58.72
2022-12-14T15:22:25.678Z,58.54
2022-12-14T15:24:55.730Z,58.56
2022-12-14T15:27:37.068Z,59.56
2022-12-14T15:30:06.623Z,59.70
2022-12-14T15:32:33.514Z,59.58
2022-12-14T15:35:04.895Z,58.77
2022-12-14T15:37:43.100Z,60.55
2022-12-14T15:40:23.073Z,59.81
2022-12-14T15:42:56.423Z,59.52
2022-12-14T15:45:25.161Z,58.97
2022-12-14T15:47:52.077Z,58.90
2022-12-14T15:50:27.154Z,58.47
2022-12-14T15:53:13.420Z,58.22
2022-12-14T15:55:44.134Z,58.45
2022-12-14T15:58:20.683Z,59.57
2022-12-14T16:00:50.309Z,59.87
2022-12-14T16:03:35.491Z,60.33
2022-12-14T16:06:03.255Z,60.83
2022-12-14T16:08:34.042Z,61.56
2022-12-14T16:11:05.421Z,60.42
2022-12-14T16:13:40.712Z,60.86
2022-12-14T16:16:11.030Z,60.46
2022-12-14T16:18:50.745Z,60.64
2022-12-14T16:21:28.017Z,61.24
2022-12-14T16:23:56.340Z,60.32
2022-12-14T16:26:37.395Z,60.94
2022-12-14T16:29:25.751Z,60.89
2022-12-14T16:32:14.606Z,60.97
2022-12-14T16:34:59.234Z,60.42
2022-12-14T16:37:34.069Z,60.53
2022-12-14T16:40:00.890Z,60.80
2022-12-14T16:42:27.942Z,60.35
2022-12-14T16:44:54.712Z,61.37
2022-12-14T16:47:21.439Z,61.02
2022-12-14T16:49:47.975Z,61.59
2022-12-14T16:52:34.126Z,61.77
2022-12-14T16:55:20.183Z,60.87
2022-12-14T16:57:49.557Z,60.60
2022-12-14T17:00:23.665Z,61.96
2022-12-14T17:02:57.581Z,63.03
2022-12-14T17:05:25.930Z,62.57
2022-12-14T17:07:52.543Z,63.53
2022-12-14T17:10:24.270Z,62.47
2022-12-14T17:12:53.513Z,62.81
2022-12-14T17:15:22.683Z,63.33
2022-12-14T17:17:52.198Z,62.96
2022-12-14T17:20:22.299Z,62.72
2022-12-14T17:22:49.664Z,63.42
2022-12-14T17:25:16.396Z,62.49
2022-12-14T17:27:42.994Z,62.35
2022-12-14T17:30:15.940Z,62.06
2022-12-14T17:32:43.056Z,61.67
2022-12-14T17:35:18.006Z,61.56
2022-12-14T17:37:44.489Z,61.46
2022-12-14T17:40:11.500Z,61.80
2022-12-14T17:42:39.828Z,61.61
2022-12-14T17:45:17.187Z,61.81
2022-12-14T17:47:43.592Z,61.73
2022-12-14T17:50:14.002Z,61.50
2022-12-14T17:52:40.603Z,62.45
2022-12-14T17:55:07.368Z,62.15
2022-12-14T17:57:33.868Z,62.75
2022-12-14T18:00:18.875Z,62.32
2022-12-14T18:02:45.883Z,62.86
2022-12-14T18:05:19.682Z,62.97
2022-12-14T18:07:46.191Z,62.72
2022-12-14T18:10:18.027Z,63.35
2022-12-14T18:12:44.664Z,65.25
2022-12-14T18:15:21.085Z,65.58
2022-12-14T18:17:49.412Z,66.53
2022-12-14T18:20:16.168Z,66.49
2022-12-14T18:22:42.812Z,66.07
2022-12-14T18:25:30.611Z,65.89
2022-12-14T18:28:01.977Z,67.04
2022-12-14T18:30:33.274Z,66.48
2022-12-14T18:33:03.614Z,65.46
2022-12-14T18:35:31.868Z,65.08
2022-12-14T18:37:58.721Z,64.19
2022-12-14T18:40:27.568Z,64.76
2022-12-14T18:42:54.509Z,65.15
2022-12-14T18:45:27.172Z,64.31
2022-12-14T18:47:54.865Z,65.08
2022-12-14T18:50:22.439Z,65.49
2022-12-14T18:52:48.956Z,66.92
2022-12-14T18:55:26.984Z,65.80
2022-12-14T18:57:56.686Z,66.53
2022-12-14T19:00:26.935Z,67.02
2022-12-14T19:02:57.535Z,66.78
2022-12-14T19:05:26.448Z,66.52
2022-12-14T19:07:53.661Z,67.34
2022-12-14T19:10:23.043Z,65.89
2022-12-14T19:12:50.318Z,66.47
2022-12-14T19:15:22.742Z,66.23
2022-12-14T19:17:49.642Z,65.47
2022-12-14T19:20:17.294Z,65.06
2022-12-14T19:22:44.587Z,64.14
2022-12-14T19:25:12.367Z,64.34
2022-12-14T19:28:15.557Z,65.92
2022-12-14T19:30:27.146Z,66.63
2022-12-14T19:32:55.099Z,65.97
2022-12-14T19:35:23.176Z,65.10
2022-12-14T19:37:50.094Z,65.10
2022-12-14T19:40:17.092Z,65.25
2022-12-14T19:42:45.254Z,64.88
2022-12-14T19:45:12.691Z,65.79
2022-12-14T19:47:39.209Z,64.90
2022-12-14T19:50:07.096Z,64.68
2022-12-14T19:52:36.923Z,65.41
2022-12-14T19:55:03.778Z,65.45
2022-12-14T19:57:30.271Z,66.00
2022-12-14T19:59:57.510Z,65.74
2022-12-14T20:02:24.058Z,65.31
2022-12-14T20:04:50.736Z,64.85
2022-12-14T20:07:17.282Z,65.31
2022-12-14T20:09:43.666Z,65.26
2022-12-14T20:12:11.318Z,65.54
2022-12-14T20:14:42.614Z,65.23
2022-12-14T20:17:10.886Z,65.56
2022-12-14T20:19:38.706Z,65.52
2022-12-14T20:22:06.195Z,64.85
2022-12-14T20:24:32.697Z,64.38
2022-12-14T20:26:59.308Z,64.71
2022-12-14T20:29:25.950Z,65.19
2022-12-14T20:31:52.694Z,64.88
2022-12-14T20:34:19.161Z,65.17
2022-12-14T20:36:45.588Z,64.61
2022-12-14T20:39:12.324Z,64.75
2022-12-14T20:41:39.028Z,64.17
2022-12-14T20:44:11.828Z,64.52
2022-12-14T20:46:40.684Z,64.07
2022-12-14T20:49:10.706Z,63.82
2022-12-14T20:51:38.326Z,64.57
2022-12-14T20:54:06.908Z,63.73
2022-12-14T20:56:35.148Z,64.34
2022-12-14T20:59:02.292Z,64.35
2022-12-14T21:01:29.242Z,64.14
2022-12-14T21:03:57.570Z,64.13
2022-12-14T21:06:24.064Z,64.02
2022-12-14T21:09:05.065Z,64.42
2022-12-14T21:11:56.366Z,64.17
2022-12-14T21:14:25.678Z,63.81
2022-12-14T21:16:52.565Z,63.46
2022-12-14T21:19:19.492Z,63.21
2022-12-14T21:21:51.664Z,63.74
2022-12-14T21:24:37.532Z,64.15
2022-12-14T21:27:08.340Z,63.66
2022-12-14T21:29:34.928Z,63.29
2022-12-14T21:32:01.543Z,64.27
2022-12-14T21:34:28.161Z,63.84
2022-12-14T21:36:54.639Z,63.57
2022-12-14T21:39:21.071Z,63.38
2022-12-14T21:42:05.832Z,63.31
2022-12-14T21:44:36.406Z,63.31
2022-12-14T21:47:05.258Z,64.03
2022-12-14T21:49:32.237Z,64.06
2022-12-14T21:51:58.853Z,63.78
2022-12-14T21:54:25.693Z,63.04
2022-12-14T21:57:10.733Z,63.50
2022-12-14T21:59:41.874Z,63.06
2022-12-14T22:02:15.993Z,63.37
2022-12-14T22:04:46.764Z,62.94
2022-12-14T22:07:15.301Z,62.79
2022-12-14T22:09:42.221Z,62.64
2022-12-14T22:12:09.092Z,64.10
2022-12-14T22:14:35.951Z,63.39
2022-12-14T22:17:02.703Z,63.29
2022-12-14T22:19:29.184Z,62.84
2022-12-14T22:21:55.724Z,63.23
2022-12-14T22:24:24.043Z,62.86
2022-12-14T22:26:50.728Z,63.23
2022-12-14T22:29:18.853Z,63.32
2022-12-14T22:31:45.402Z,62.92
2022-12-14T22:34:18.922Z,63.15
2022-12-14T22:36:46.461Z,62.99
2022-12-14T22:39:13.056Z,62.99
2022-12-14T22:41:39.541Z,63.81
2022-12-14T22:44:06.288Z,63.39
2022-12-14T22:46:33.582Z,63.25
2022-12-14T22:49:00.374Z,63.13
2022-12-14T22:51:29.084Z,63.03
2022-12-14T22:53:56.379Z,62.76
2022-12-14T22:56:41.959Z,62.56
2022-12-14T22:59:34.448Z,62.43
2022-12-14T23:02:01.090Z,62.61
2022-12-14T23:04:27.845Z,62.53
2022-12-14T23:06:55.409Z,62.77
2022-12-14T23:09:40.658Z,62.44
2022-12-14T23:12:26.181Z,62.05
2022-12-14T23:15:11.089Z,62.29
2022-12-14T23:17:55.849Z,62.24
2022-12-14T23:20:40.667Z,62.18
2022-12-14T23:23:26.985Z,62.04
2022-12-14T23:26:12.674Z,61.99
2022-12-14T23:28:58.431Z,62.25
2022-12-14T23:31:43.301Z,62.15
2022-12-14T23:34:28.056Z,61.76
2022-12-14T23:37:19.496Z,62.30
2022-12-14T23:40:04.977Z,61.91
2022-12-14T23:42:49.879Z,62.43
2022-12-14T23:45:34.730Z,62.66
2022-12-14T23:48:19.677Z,62.22
2022-12-14T23:51:04.565Z,62.08
2022-12-14T23:53:50.002Z,62.42
2022-12-14T23:56:35.798Z,61.90
2022-12-14T23:59:22.666Z,62.84
